createdAt,value
2017-05-15T00:00:42.444Z,0.00
2017-05-15T00:01:25.392Z,0.00
2017-05-15T00:02:12.900Z,0.00
2017-05-15T00:02:55.894Z,0.00
2017-05-15T00:03:43.410Z,0.00
2017-05-15T00:04:26.411Z,0.00
2017-05-15T00:05:13.910Z,0.00
2017-05-15T00:06:01.886Z,0.00
2017-05-15T00:06:50.900Z,0.00
2017-05-15T00:07:38.382Z,0.00
2017-05-15T00:08:21.950Z,0.00
2017-05-15T00:09:08.830Z,0.00
2017-05-15T00:09:56.861Z,0.00
2017-05-15T00:10:44.778Z,0.00
2017-05-15T00:11:27.789Z,0.00
2017-05-15T00:12:15.310Z,0.00
2017-05-15T00:12:58.240Z,0.00
2017-05-15T00:13:45.732Z,0.00
2017-05-15T00:14:34.722Z,0.00
2017-05-15T00:15:22.232Z,0.00
2017-05-15T00:16:10.380Z,0.00
2017-05-15T00:16:58.189Z,0.00
2017-05-15T00:17:47.083Z,0.00
2017-05-15T00:18:34.650Z,0.00
2017-05-15T00:19:22.609Z,0.00
2017-05-15T00:20:10.572Z,0.00
2017-05-15T00:20:59.529Z,0.00
2017-05-15T00:21:47.114Z,0.00
2017-05-15T00:22:29.991Z,0.00
2017-05-15T00:23:17.542Z,0.00
2017-05-15T00:24:05.509Z,0.00
2017-05-15T00:24:53.493Z,0.00
2017-05-15T00:25:36.379Z,0.00
2017-05-15T00:26:23.987Z,0.00
2017-05-15T00:27:06.942Z,0.00
2017-05-15T00:27:54.449Z,0.00
2017-05-15T00:28:43.402Z,0.00
2017-05-15T00:29:30.955Z,0.00
2017-05-15T00:30:18.914Z,0.00
2017-05-15T00:31:07.500Z,0.00
2017-05-15T00:31:49.785Z,0.00
2017-05-15T00:32:37.332Z,0.00
2017-05-15T00:33:20.275Z,0.00
2017-05-15T00:34:07.848Z,0.00
2017-05-15T00:34:56.807Z,0.00
2017-05-15T00:35:44.331Z,0.00
2017-05-15T00:36:27.789Z,0.00
2017-05-15T00:37:14.764Z,0.00
2017-05-15T00:38:02.780Z,0.00
2017-05-15T00:38:50.727Z,0.00
2017-05-15T00:39:39.901Z,0.00
2017-05-15T00:40:27.193Z,0.00
2017-05-15T00:41:15.155Z,0.00
2017-05-15T00:41:58.141Z,0.00
2017-05-15T00:42:45.646Z,0.00
2017-05-15T00:43:33.570Z,0.00
2017-05-15T00:44:16.601Z,0.00
2017-05-15T00:45:04.153Z,0.00
2017-05-15T00:45:53.099Z,0.00
2017-05-15T00:46:41.039Z,0.00
2017-05-15T00:47:28.578Z,0.00
2017-05-15T00:48:16.487Z,0.00
2017-05-15T00:48:59.490Z,0.00
2017-05-15T00:49:46.996Z,0.00
2017-05-15T00:50:35.962Z,0.00
2017-05-15T00:51:23.502Z,0.00
2017-05-15T00:52:11.466Z,0.00
2017-05-15T00:52:59.464Z,0.00
2017-05-15T00:53:48.378Z,0.00
2017-05-15T00:54:35.901Z,0.00
2017-05-15T00:55:23.915Z,0.00
2017-05-15T00:56:06.896Z,0.00
2017-05-15T00:56:54.376Z,0.00
2017-05-15T00:57:42.319Z,0.00
2017-05-15T00:58:25.278Z,0.00
2017-05-15T00:59:12.806Z,0.00
2017-05-15T00:59:55.789Z,0.00
2017-05-15T01:00:43.314Z,0.00
2017-05-15T01:01:32.294Z,0.00
2017-05-15T01:02:19.814Z,0.00
2017-05-15T01:03:02.804Z,0.00
2017-05-15T01:03:50.310Z,0.00
2017-05-15T01:04:38.211Z,0.00
2017-05-15T01:05:21.185Z,0.00
2017-05-15T01:06:08.737Z,0.00
2017-05-15T01:06:51.690Z,0.00
2017-05-15T01:07:39.254Z,0.00
2017-05-15T01:08:27.181Z,0.00
2017-05-15T01:09:15.079Z,0.00
2017-05-15T01:10:04.104Z,0.00
2017-05-15T01:10:51.641Z,0.00
2017-05-15T01:11:34.579Z,0.00
2017-05-15T01:12:22.185Z,0.00
2017-05-15T01:13:10.087Z,0.00
2017-05-15T01:13:52.985Z,0.00
2017-05-15T01:14:40.608Z,0.00
2017-05-15T01:15:23.533Z,0.00
2017-05-15T01:16:11.047Z,0.00
2017-05-15T01:16:54.029Z,0.00
2017-05-15T01:17:41.537Z,0.00
2017-05-15T01:18:29.487Z,0.00
2017-05-15T01:19:18.430Z,0.00
2017-05-15T01:20:05.945Z,0.00
2017-05-15T01:20:53.957Z,0.00
2017-05-15T01:21:41.971Z,0.00
2017-05-15T01:22:30.927Z,0.00
2017-05-15T01:23:18.411Z,0.00
2017-05-15T01:24:01.378Z,0.00
2017-05-15T01:24:48.893Z,0.00
2017-05-15T01:25:31.877Z,0.00
2017-05-15T01:26:19.373Z,0.00
2017-05-15T01:27:07.327Z,0.00
2017-05-15T01:27:55.284Z,0.00
2017-05-15T01:28:43.298Z,0.00
2017-05-15T01:29:38.207Z,0.00
2017-05-15T01:30:38.700Z,0.00
2017-05-15T01:31:33.219Z,0.00
2017-05-15T01:32:27.848Z,0.00
2017-05-15T01:33:22.265Z,0.00
2017-05-15T01:34:15.783Z,0.00
2017-05-15T01:35:09.694Z,0.00
2017-05-15T01:36:04.658Z,0.00
2017-05-15T01:36:59.313Z,0.00
2017-05-15T01:37:53.742Z,0.00
2017-05-15T01:38:53.227Z,0.00
2017-05-15T01:39:47.228Z,0.00
2017-05-15T01:40:36.167Z,0.00
2017-05-15T01:41:29.700Z,0.00
2017-05-15T01:42:18.576Z,0.00
2017-05-15T01:43:13.165Z,0.00
2017-05-15T01:44:07.662Z,0.00
2017-05-15T01:45:01.251Z,0.00
2017-05-15T01:45:55.142Z,0.00
2017-05-15T01:46:49.747Z,0.00
2017-05-15T01:47:38.104Z,0.00
2017-05-15T01:48:32.595Z,0.00
2017-05-15T01:49:27.149Z,0.00
2017-05-15T01:50:20.628Z,0.00
2017-05-15T01:51:15.814Z,0.00
2017-05-15T01:52:10.100Z,0.00
2017-05-15T01:53:04.568Z,0.00
2017-05-15T01:53:59.124Z,0.00
2017-05-15T01:54:53.680Z,0.00
2017-05-15T01:55:47.176Z,0.00
2017-05-15T01:56:42.076Z,0.00
2017-05-15T01:57:30.668Z,0.00
2017-05-15T01:58:24.147Z,0.00
2017-05-15T01:59:18.125Z,0.00
2017-05-15T02:00:06.111Z,0.00
2017-05-15T02:01:06.105Z,0.00
2017-05-15T02:02:00.949Z,0.00
2017-05-15T02:02:55.495Z,0.00
2017-05-15T02:03:49.988Z,0.00
2017-05-15T02:04:55.507Z,0.00
2017-05-15T02:05:43.489Z,0.00
2017-05-15T02:06:37.513Z,0.00
2017-05-15T02:07:31.425Z,0.00
2017-05-15T02:08:20.413Z,0.00
2017-05-15T02:09:08.913Z,0.00
2017-05-15T02:10:02.405Z,0.00
2017-05-15T02:10:57.386Z,0.00
2017-05-15T02:11:52.166Z,0.00
2017-05-15T02:12:45.383Z,0.00
2017-05-15T02:13:33.381Z,0.00
2017-05-15T02:14:28.325Z,0.00
2017-05-15T02:15:21.790Z,0.00
2017-05-15T02:16:16.044Z,0.00
2017-05-15T02:17:09.777Z,0.00
2017-05-15T02:17:58.686Z,0.00
2017-05-15T02:18:53.194Z,0.00
2017-05-15T02:19:46.725Z,0.00
2017-05-15T02:20:40.637Z,0.00
2017-05-15T02:21:36.025Z,0.00
2017-05-15T02:22:41.204Z,0.00
2017-05-15T02:23:35.055Z,0.00
2017-05-15T02:24:30.044Z,0.00
2017-05-15T02:25:24.565Z,0.00
2017-05-15T02:26:19.074Z,0.00
2017-05-15T02:27:13.583Z,0.00
2017-05-15T02:28:08.092Z,0.00
2017-05-15T02:29:02.656Z,0.00
2017-05-15T02:29:56.190Z,0.00
2017-05-15T02:30:56.100Z,0.00
2017-05-15T02:31:50.696Z,0.00
2017-05-15T02:32:44.016Z,0.00
2017-05-15T02:33:44.260Z,0.00
2017-05-15T02:34:38.884Z,0.00
2017-05-15T02:35:38.434Z,0.00
2017-05-15T02:36:32.833Z,0.00
2017-05-15T02:37:26.339Z,0.00
2017-05-15T02:38:21.256Z,0.00
2017-05-15T02:39:20.839Z,0.00
2017-05-15T02:40:14.773Z,0.00
2017-05-15T02:41:08.679Z,0.00
2017-05-15T02:42:02.666Z,0.00
2017-05-15T02:42:56.610Z,0.00
2017-05-15T02:43:50.588Z,0.00
2017-05-15T02:44:45.614Z,0.00
2017-05-15T02:45:40.056Z,0.00
2017-05-15T02:46:34.562Z,0.00
2017-05-15T02:47:29.098Z,0.00
2017-05-15T02:48:22.636Z,0.00
2017-05-15T02:49:10.577Z,0.00
2017-05-15T02:49:59.582Z,0.00
2017-05-15T02:50:54.095Z,0.00
2017-05-15T02:51:42.583Z,0.00
2017-05-15T02:52:31.097Z,0.00
2017-05-15T02:53:19.611Z,0.00
2017-05-15T02:54:14.130Z,0.00
2017-05-15T02:55:08.638Z,0.00
2017-05-15T02:56:03.208Z,0.00
2017-05-15T02:57:02.699Z,0.00
2017-05-15T02:57:56.591Z,0.00
2017-05-15T02:58:45.586Z,0.00
2017-05-15T02:59:39.151Z,0.00
2017-05-15T03:00:34.115Z,0.00
2017-05-15T03:01:28.566Z,0.00
2017-05-15T03:02:28.088Z,0.00
2017-05-15T03:03:22.074Z,0.00
2017-05-15T03:04:10.024Z,0.00
2017-05-15T03:05:03.937Z,0.00
2017-05-15T03:05:53.060Z,0.00
2017-05-15T03:06:47.399Z,0.00
2017-05-15T03:07:35.965Z,0.00
2017-05-15T03:08:35.499Z,0.00
2017-05-15T03:09:24.419Z,0.00
2017-05-15T03:10:18.937Z,0.00
2017-05-15T03:11:13.493Z,0.00
2017-05-15T03:12:02.012Z,0.00
2017-05-15T03:12:55.506Z,0.00
2017-05-15T03:13:49.478Z,0.00
2017-05-15T03:14:38.376Z,0.00
2017-05-15T03:15:31.903Z,0.00
2017-05-15T03:16:25.896Z,0.00
2017-05-15T03:17:14.817Z,0.00
2017-05-15T03:18:09.380Z,0.00
2017-05-15T03:19:02.900Z,0.00
2017-05-15T03:19:57.819Z,0.00
2017-05-15T03:20:51.330Z,0.00
2017-05-15T03:21:45.338Z,0.00
2017-05-15T03:22:39.231Z,0.00
2017-05-15T03:23:28.184Z,0.00
2017-05-15T03:24:21.699Z,0.00
2017-05-15T03:25:15.698Z,0.00
2017-05-15T03:26:09.723Z,0.00
2017-05-15T03:26:58.936Z,0.00
2017-05-15T03:27:47.110Z,0.00
2017-05-15T03:28:41.638Z,0.00
2017-05-15T03:29:36.104Z,0.00
2017-05-15T03:30:29.682Z,0.00
2017-05-15T03:31:18.631Z,0.00
2017-05-15T03:32:12.189Z,0.00
2017-05-15T03:33:06.094Z,0.00
2017-05-15T03:33:55.082Z,0.00
2017-05-15T03:34:48.633Z,0.00
2017-05-15T03:35:42.582Z,0.00
2017-05-15T03:36:36.492Z,0.00
2017-05-15T03:37:30.569Z,0.01
2017-05-15T03:38:18.449Z,0.01
2017-05-15T03:39:07.402Z,0.01
2017-05-15T03:39:55.881Z,0.01
2017-05-15T03:40:49.383Z,0.01
2017-05-15T03:41:43.397Z,0.01
2017-05-15T03:42:37.279Z,0.01
2017-05-15T03:43:26.310Z,0.01
2017-05-15T03:44:19.773Z,0.01
2017-05-15T03:45:20.788Z,0.01
2017-05-15T03:46:14.192Z,0.01
2017-05-15T03:47:14.200Z,0.01
2017-05-15T03:48:09.401Z,0.01
2017-05-15T03:49:02.912Z,0.01
2017-05-15T03:50:02.632Z,0.01
2017-05-15T03:50:51.653Z,0.01
2017-05-15T03:51:46.100Z,0.01
2017-05-15T03:52:40.639Z,0.02
2017-05-15T03:53:35.162Z,0.02
2017-05-15T03:54:29.664Z,0.02
2017-05-15T03:55:23.165Z,0.02
2017-05-15T03:56:23.147Z,0.02
2017-05-15T03:57:12.064Z,0.02
2017-05-15T03:58:05.599Z,0.02
2017-05-15T03:58:59.560Z,0.02
2017-05-15T03:59:53.523Z,0.02
2017-05-15T04:00:47.909Z,0.02
2017-05-15T04:01:42.584Z,0.02
2017-05-15T04:02:35.914Z,0.02
2017-05-15T04:03:30.360Z,0.02
2017-05-15T04:04:17.956Z,0.02
2017-05-15T04:05:12.774Z,0.02
2017-05-15T04:06:01.535Z,0.02
2017-05-15T04:06:56.303Z,0.03
2017-05-15T04:07:50.412Z,0.03
2017-05-15T04:08:44.895Z,0.03
2017-05-15T04:09:39.561Z,0.03
2017-05-15T04:10:38.884Z,0.03
2017-05-15T04:11:32.868Z,0.03
2017-05-15T04:12:22.373Z,0.03
2017-05-15T04:13:10.308Z,0.03
2017-05-15T04:14:04.922Z,0.03
2017-05-15T04:14:59.775Z,0.03
2017-05-15T04:15:59.026Z,0.03
2017-05-15T04:16:52.825Z,0.04
2017-05-15T04:17:41.833Z,0.04
2017-05-15T04:18:35.313Z,0.04
2017-05-15T04:19:24.305Z,0.04
2017-05-15T04:20:12.374Z,0.04
2017-05-15T04:20:59.801Z,0.04
2017-05-15T04:21:47.684Z,0.04
2017-05-15T04:22:36.701Z,0.04
2017-05-15T04:23:24.200Z,0.04
2017-05-15T04:24:07.178Z,0.04
2017-05-15T04:24:54.709Z,0.04
2017-05-15T04:25:42.736Z,0.04
2017-05-15T04:26:30.616Z,0.05
2017-05-15T04:27:13.570Z,0.05
2017-05-15T04:28:01.101Z,0.05
2017-05-15T04:28:44.060Z,0.05
2017-05-15T04:29:31.623Z,0.05
2017-05-15T04:30:20.595Z,0.05
2017-05-15T04:31:08.761Z,0.05
2017-05-15T04:31:56.051Z,0.05
2017-05-15T04:32:39.016Z,0.05
2017-05-15T04:33:26.511Z,0.05
2017-05-15T04:34:15.039Z,0.06
2017-05-15T04:35:03.479Z,0.06
2017-05-15T04:35:50.944Z,0.06
2017-05-15T04:36:38.946Z,0.06
2017-05-15T04:37:21.879Z,0.06
2017-05-15T04:38:09.452Z,0.07
2017-05-15T04:38:57.385Z,0.07
2017-05-15T04:39:46.296Z,0.07
2017-05-15T04:40:33.830Z,0.08
2017-05-15T04:41:22.256Z,0.08
2017-05-15T04:42:09.891Z,0.09
2017-05-15T04:42:52.720Z,0.09
2017-05-15T04:43:40.543Z,0.09
2017-05-15T04:44:23.241Z,0.09
2017-05-15T04:45:10.788Z,0.09
2017-05-15T04:46:00.170Z,0.09
2017-05-15T04:46:47.779Z,0.09
2017-05-15T04:47:30.174Z,0.09
2017-05-15T04:48:18.257Z,0.10
2017-05-15T04:49:00.957Z,0.09
2017-05-15T04:49:54.208Z,0.10
2017-05-15T04:50:37.186Z,0.10
2017-05-15T04:51:25.702Z,0.10
2017-05-15T04:52:19.198Z,0.10
2017-05-15T04:53:02.511Z,0.10
2017-05-15T04:53:49.725Z,0.10
2017-05-15T04:54:38.707Z,0.10
2017-05-15T04:55:26.217Z,0.11
2017-05-15T04:56:14.782Z,0.11
2017-05-15T04:57:02.139Z,0.11
2017-05-15T04:57:51.088Z,0.11
2017-05-15T04:58:38.677Z,0.11
2017-05-15T04:59:27.017Z,0.11
2017-05-15T05:00:15.202Z,0.11
2017-05-15T05:01:03.524Z,0.11
2017-05-15T05:01:51.637Z,0.11
2017-05-15T05:02:39.573Z,0.11
2017-05-15T05:03:33.558Z,0.11
2017-05-15T05:04:21.518Z,0.11
2017-05-15T05:05:10.505Z,0.11
2017-05-15T05:05:57.997Z,0.11
2017-05-15T05:06:47.006Z,0.11
2017-05-15T05:07:35.513Z,0.11
2017-05-15T05:08:23.048Z,0.12
2017-05-15T05:09:10.980Z,0.12
2017-05-15T05:09:58.955Z,0.12
2017-05-15T05:10:53.861Z,0.12
2017-05-15T05:11:41.534Z,0.12
2017-05-15T05:12:36.388Z,0.12
2017-05-15T05:13:30.856Z,0.13
2017-05-15T05:14:19.473Z,0.13
2017-05-15T05:15:07.007Z,0.13
2017-05-15T05:15:55.936Z,0.14
2017-05-15T05:16:43.494Z,0.14
2017-05-15T05:17:31.453Z,0.14
2017-05-15T05:18:19.426Z,0.15
2017-05-15T05:19:07.362Z,0.15
2017-05-15T05:19:56.313Z,0.15
2017-05-15T05:20:55.795Z,0.16
2017-05-15T05:21:49.828Z,0.16
2017-05-15T05:22:38.752Z,0.17
2017-05-15T05:23:26.289Z,0.17
2017-05-15T05:24:15.211Z,0.18
2017-05-15T05:25:03.756Z,0.18
2017-05-15T05:25:52.329Z,0.18
2017-05-15T05:26:40.779Z,0.18
2017-05-15T05:27:35.328Z,0.18
2017-05-15T05:28:22.905Z,0.18
2017-05-15T05:29:10.890Z,0.18
2017-05-15T05:29:53.860Z,0.18
2017-05-15T05:30:41.442Z,0.19
2017-05-15T05:31:30.364Z,0.20
2017-05-15T05:32:17.908Z,0.22
2017-05-15T05:33:12.912Z,0.21
2017-05-15T05:34:07.343Z,0.21
2017-05-15T05:35:00.967Z,0.22
2017-05-15T05:35:48.887Z,0.22
2017-05-15T05:36:36.920Z,0.21
2017-05-15T05:37:24.888Z,0.21
2017-05-15T05:38:24.847Z,0.22
2017-05-15T05:39:24.768Z,0.24
2017-05-15T05:40:24.763Z,0.25
2017-05-15T05:41:12.920Z,0.25
2017-05-15T05:41:55.722Z,0.25
2017-05-15T05:42:49.236Z,0.21
2017-05-15T05:43:49.209Z,0.23
2017-05-15T05:44:38.122Z,0.25
2017-05-15T05:45:26.649Z,0.26
2017-05-15T05:46:14.025Z,0.26
2017-05-15T05:47:02.109Z,0.27
2017-05-15T05:48:02.221Z,0.28
2017-05-15T05:49:02.020Z,0.29
2017-05-15T05:50:02.095Z,0.28
2017-05-15T05:50:56.052Z,0.29
2017-05-15T05:51:44.942Z,0.30
2017-05-15T05:52:33.534Z,0.31
2017-05-15T05:53:22.107Z,0.31
2017-05-15T05:54:09.577Z,0.31
2017-05-15T05:54:57.560Z,0.30
2017-05-15T05:55:46.509Z,0.30
2017-05-15T05:56:35.067Z,0.30
2017-05-15T05:57:23.624Z,0.31
2017-05-15T05:58:11.103Z,0.31
2017-05-15T05:59:00.096Z,0.30
2017-05-15T05:59:47.638Z,0.30
2017-05-15T06:00:47.776Z,0.30
2017-05-15T06:01:36.493Z,0.31
2017-05-15T06:02:37.346Z,0.31
2017-05-15T06:03:36.647Z,0.29
2017-05-15T06:04:31.638Z,0.29
2017-05-15T06:05:19.106Z,0.29
2017-05-15T06:06:13.214Z,0.30
2017-05-15T06:07:07.073Z,0.31
2017-05-15T06:07:55.997Z,0.32
2017-05-15T06:08:44.622Z,0.33
2017-05-15T06:09:33.121Z,0.34
2017-05-15T06:10:26.664Z,0.36
2017-05-15T06:11:14.631Z,0.36
2017-05-15T06:11:57.518Z,0.37
2017-05-15T06:12:52.105Z,0.37
2017-05-15T06:13:46.662Z,0.37
2017-05-15T06:14:52.143Z,0.37
2017-05-15T06:15:47.135Z,0.37
2017-05-15T06:16:41.611Z,0.36
2017-05-15T06:17:41.203Z,0.36
2017-05-15T06:18:35.132Z,0.37
2017-05-15T06:19:29.120Z,0.37
2017-05-15T06:20:12.257Z,0.38
2017-05-15T06:21:00.603Z,0.38
2017-05-15T06:21:49.191Z,0.39
2017-05-15T06:22:43.710Z,0.40
2017-05-15T06:23:38.192Z,0.41
2017-05-15T06:24:32.758Z,0.42
2017-05-15T06:25:32.348Z,0.42
2017-05-15T06:26:26.287Z,0.42
2017-05-15T06:27:09.208Z,0.42
2017-05-15T06:27:57.764Z,0.42
2017-05-15T06:28:51.368Z,0.42
2017-05-15T06:29:45.298Z,0.43
2017-05-15T06:30:34.253Z,0.43
2017-05-15T06:31:22.789Z,0.42
2017-05-15T06:32:16.322Z,0.43
2017-05-15T06:33:11.292Z,0.43
2017-05-15T06:34:11.883Z,0.44
2017-05-15T06:35:05.393Z,0.43
2017-05-15T06:36:00.684Z,0.44
2017-05-15T06:36:48.881Z,0.44
2017-05-15T06:37:36.478Z,0.43
2017-05-15T06:38:25.431Z,0.44
2017-05-15T06:39:19.993Z,0.44
2017-05-15T06:40:13.446Z,0.44
2017-05-15T06:41:13.694Z,0.44
2017-05-15T06:42:07.444Z,0.44
2017-05-15T06:42:56.465Z,0.44
2017-05-15T06:43:50.030Z,0.44
2017-05-15T06:44:38.946Z,0.45
2017-05-15T06:45:33.512Z,0.45
2017-05-15T06:46:22.054Z,0.46
2017-05-15T06:47:15.586Z,0.46
2017-05-15T06:48:09.528Z,0.47
2017-05-15T06:49:03.506Z,0.48
2017-05-15T06:49:58.505Z,0.48
2017-05-15T06:50:51.975Z,0.47
2017-05-15T06:51:41.100Z,0.50
2017-05-15T06:52:40.517Z,0.50
2017-05-15T06:53:34.453Z,0.50
2017-05-15T06:54:28.445Z,0.49
2017-05-15T06:55:22.470Z,0.49
2017-05-15T06:56:11.533Z,0.50
2017-05-15T06:57:00.030Z,0.50
2017-05-15T06:57:53.547Z,0.50
2017-05-15T06:58:41.523Z,0.49
2017-05-15T06:59:29.479Z,0.49
2017-05-15T07:00:18.446Z,0.49
2017-05-15T07:01:12.026Z,0.50
2017-05-15T07:01:54.955Z,0.50
2017-05-15T07:02:55.554Z,0.52
2017-05-15T07:03:49.007Z,0.52
2017-05-15T07:04:43.007Z,0.52
2017-05-15T07:05:30.981Z,0.50
2017-05-15T07:06:19.921Z,0.50
2017-05-15T07:07:19.530Z,0.50
2017-05-15T07:08:13.491Z,0.50
2017-05-15T07:09:08.416Z,0.52
2017-05-15T07:10:01.944Z,0.53
2017-05-15T07:10:50.996Z,0.55
2017-05-15T07:11:39.454Z,0.55
2017-05-15T07:12:28.043Z,0.56
2017-05-15T07:13:21.584Z,0.56
2017-05-15T07:14:04.552Z,0.56
2017-05-15T07:14:53.029Z,0.57
2017-05-15T07:15:47.586Z,0.56
2017-05-15T07:16:41.208Z,0.56
2017-05-15T07:17:29.564Z,0.56
2017-05-15T07:18:18.154Z,0.55
2017-05-15T07:19:11.739Z,0.53
2017-05-15T07:20:05.855Z,0.54
2017-05-15T07:20:59.952Z,0.54
2017-05-15T07:21:48.751Z,0.56
2017-05-15T07:22:37.117Z,0.57
2017-05-15T07:23:25.848Z,0.58
2017-05-15T07:24:19.871Z,0.59
2017-05-15T07:25:19.161Z,0.60
2017-05-15T07:26:14.841Z,0.61
2017-05-15T07:27:08.248Z,0.61
2017-05-15T07:28:02.663Z,0.61
2017-05-15T07:28:56.447Z,0.62
2017-05-15T07:29:51.483Z,0.62
2017-05-15T07:30:39.687Z,0.61
2017-05-15T07:31:28.786Z,0.62
2017-05-15T07:32:22.371Z,0.61
2017-05-15T07:33:16.030Z,0.62
2017-05-15T07:34:05.225Z,0.62
2017-05-15T07:34:59.053Z,0.62
2017-05-15T07:35:53.770Z,0.63
2017-05-15T07:36:47.350Z,0.64
2017-05-15T07:37:47.331Z,0.65
2017-05-15T07:38:41.202Z,0.65
2017-05-15T07:39:35.233Z,0.65
2017-05-15T07:40:30.287Z,0.65
2017-05-15T07:41:23.696Z,0.66
2017-05-15T07:42:11.696Z,0.66
2017-05-15T07:43:00.770Z,0.65
2017-05-15T07:43:54.286Z,0.65
2017-05-15T07:44:48.233Z,0.64
2017-05-15T07:45:42.196Z,0.64
2017-05-15T07:46:36.181Z,0.64
2017-05-15T07:47:30.159Z,0.65
2017-05-15T07:48:25.139Z,0.66
2017-05-15T07:49:24.705Z,0.66
2017-05-15T07:50:12.655Z,0.66
2017-05-15T07:51:07.648Z,0.68
2017-05-15T07:52:01.151Z,0.68
2017-05-15T07:52:49.143Z,0.69
2017-05-15T07:53:38.054Z,0.69
2017-05-15T07:54:32.694Z,0.70
2017-05-15T07:55:26.215Z,0.70
2017-05-15T07:56:15.351Z,0.71
2017-05-15T07:57:14.745Z,0.70
2017-05-15T07:58:09.708Z,0.70
2017-05-15T07:59:04.234Z,0.70
2017-05-15T07:59:57.838Z,0.70
2017-05-15T08:00:52.270Z,0.70
2017-05-15T08:01:40.792Z,0.70
2017-05-15T08:02:29.302Z,0.71
2017-05-15T08:03:18.467Z,0.71
2017-05-15T08:04:05.444Z,0.72
2017-05-15T08:05:11.999Z,0.72
2017-05-15T08:06:00.724Z,0.72
2017-05-15T08:06:48.405Z,0.73
2017-05-15T08:07:37.180Z,0.73
2017-05-15T08:08:36.900Z,0.73
2017-05-15T08:09:30.934Z,0.73
2017-05-15T08:10:13.935Z,0.73
2017-05-15T08:11:07.500Z,0.73
2017-05-15T08:12:01.043Z,0.73
2017-05-15T08:12:49.113Z,0.73
2017-05-15T08:13:38.241Z,0.73
2017-05-15T08:14:31.741Z,0.73
2017-05-15T08:15:19.368Z,0.73
2017-05-15T08:16:08.988Z,0.73
2017-05-15T08:17:02.443Z,0.74
2017-05-15T08:17:55.928Z,0.75
2017-05-15T08:18:45.406Z,0.75
2017-05-15T08:19:34.005Z,0.74
2017-05-15T08:20:27.227Z,0.74
2017-05-15T08:21:16.645Z,0.74
2017-05-15T08:22:11.050Z,0.74
2017-05-15T08:23:10.390Z,0.74
2017-05-15T08:23:53.568Z,0.74
2017-05-15T08:24:47.559Z,0.74
2017-05-15T08:25:42.055Z,0.74
2017-05-15T08:26:48.178Z,0.76
2017-05-15T08:27:30.923Z,0.76
2017-05-15T08:28:19.511Z,0.76
2017-05-15T08:29:13.269Z,0.77
2017-05-15T08:30:08.094Z,0.77
2017-05-15T08:31:01.752Z,0.79
2017-05-15T08:31:49.707Z,0.79
2017-05-15T08:32:43.750Z,0.79
2017-05-15T08:33:26.701Z,0.80
2017-05-15T08:34:32.276Z,0.81
2017-05-15T08:35:14.845Z,0.80
2017-05-15T08:36:09.820Z,0.80
2017-05-15T08:37:09.295Z,0.81
2017-05-15T08:37:58.309Z,0.81
2017-05-15T08:38:46.756Z,0.81
2017-05-15T08:39:40.115Z,0.81
2017-05-15T08:40:34.044Z,0.80
2017-05-15T08:41:22.346Z,0.79
2017-05-15T08:42:10.068Z,0.80
2017-05-15T08:43:03.796Z,0.80
2017-05-15T08:43:58.275Z,0.80
2017-05-15T08:44:47.214Z,0.78
2017-05-15T08:45:35.698Z,0.77
2017-05-15T08:46:28.764Z,0.76
2017-05-15T08:47:17.928Z,0.77
2017-05-15T08:48:11.823Z,0.76
2017-05-15T08:49:11.531Z,0.76
2017-05-15T08:50:00.543Z,0.79
2017-05-15T08:50:49.191Z,0.78
2017-05-15T08:51:43.956Z,0.79
2017-05-15T08:52:43.237Z,0.79
2017-05-15T08:53:31.707Z,0.80
2017-05-15T08:54:25.406Z,0.79
2017-05-15T08:55:19.396Z,0.79
2017-05-15T08:56:12.973Z,0.81
2017-05-15T08:57:13.189Z,0.81
2017-05-15T08:58:07.203Z,0.81
2017-05-15T08:59:02.626Z,0.81
2017-05-15T08:59:56.739Z,0.81
2017-05-15T09:00:50.337Z,0.81
2017-05-15T09:01:45.336Z,0.80
2017-05-15T09:02:44.878Z,0.79
2017-05-15T09:03:33.805Z,0.79
2017-05-15T09:04:28.685Z,0.80
2017-05-15T09:05:27.887Z,0.60
2017-05-15T09:06:17.003Z,0.81
2017-05-15T09:07:10.217Z,0.80
2017-05-15T09:07:59.221Z,0.78
2017-05-15T09:08:48.029Z,0.75
2017-05-15T09:09:41.781Z,0.74
2017-05-15T09:10:35.237Z,0.82
2017-05-15T09:11:18.682Z,0.84
2017-05-15T09:12:13.097Z,0.76
2017-05-15T09:13:06.758Z,0.85
2017-05-15T09:14:06.459Z,0.80
2017-05-15T09:15:00.605Z,0.70
2017-05-15T09:15:55.586Z,0.77
2017-05-15T09:16:56.003Z,0.79
2017-05-15T09:17:44.288Z,0.76
2017-05-15T09:18:32.143Z,0.31
2017-05-15T09:19:21.143Z,0.80
2017-05-15T09:20:14.699Z,0.78
2017-05-15T09:21:08.579Z,0.80
2017-05-15T09:22:03.678Z,0.79
2017-05-15T09:22:52.115Z,0.77
2017-05-15T09:23:45.600Z,0.81
2017-05-15T09:24:39.630Z,0.79
2017-05-15T09:25:28.495Z,0.76
2017-05-15T09:26:22.096Z,0.76
2017-05-15T09:27:17.235Z,0.76
2017-05-15T09:28:04.755Z,0.74
2017-05-15T09:29:04.646Z,0.80
2017-05-15T09:29:53.731Z,0.79
2017-05-15T09:30:42.609Z,0.80
2017-05-15T09:31:30.693Z,0.83
2017-05-15T09:32:30.243Z,0.51
2017-05-15T09:33:24.343Z,0.84
2017-05-15T09:34:12.294Z,0.80
2017-05-15T09:35:07.216Z,0.82
2017-05-15T09:36:01.016Z,0.83
2017-05-15T09:36:54.714Z,0.88
2017-05-15T09:37:43.835Z,0.83
2017-05-15T09:38:31.064Z,0.89
2017-05-15T09:39:30.765Z,0.86
2017-05-15T09:40:19.886Z,0.86
2017-05-15T09:41:08.018Z,0.88
2017-05-15T09:41:56.934Z,0.87
2017-05-15T09:42:45.406Z,0.86
2017-05-15T09:43:38.953Z,0.80
2017-05-15T09:44:28.015Z,0.84
2017-05-15T09:45:21.473Z,0.83
2017-05-15T09:46:09.706Z,0.78
2017-05-15T09:46:57.474Z,0.79
2017-05-15T09:47:51.395Z,0.78
2017-05-15T09:48:46.352Z,0.77
2017-05-15T09:49:34.968Z,0.80
2017-05-15T09:50:23.467Z,0.84
2017-05-15T09:51:17.140Z,0.87
2017-05-15T09:52:05.009Z,0.89
2017-05-15T09:52:59.919Z,0.91
2017-05-15T09:54:00.565Z,0.91
2017-05-15T09:54:49.100Z,0.92
2017-05-15T09:55:42.625Z,0.94
2017-05-15T09:56:31.579Z,0.93
2017-05-15T09:57:25.243Z,0.93
2017-05-15T09:58:14.138Z,0.95
2017-05-15T09:59:07.640Z,0.97
2017-05-15T09:59:55.583Z,0.94
2017-05-15T10:00:43.655Z,0.95
2017-05-15T10:01:32.759Z,0.99
2017-05-15T10:02:26.203Z,0.98
2017-05-15T10:03:15.178Z,0.29
2017-05-15T10:04:08.886Z,0.30
2017-05-15T10:05:02.700Z,0.27
2017-05-15T10:05:50.619Z,0.31
2017-05-15T10:06:45.645Z,1.03
2017-05-15T10:07:39.161Z,1.03
2017-05-15T10:08:33.156Z,1.06
2017-05-15T10:09:27.096Z,0.34
2017-05-15T10:10:22.090Z,0.35
2017-05-15T10:11:16.688Z,0.35
2017-05-15T10:12:11.241Z,0.37
2017-05-15T10:13:05.673Z,0.54
2017-05-15T10:14:00.191Z,0.69
2017-05-15T10:14:54.772Z,0.87
2017-05-15T10:15:54.343Z,0.39
2017-05-15T10:16:49.414Z,0.82
2017-05-15T10:17:43.940Z,1.05
2017-05-15T10:18:36.918Z,0.83
2017-05-15T10:19:31.355Z,0.30
2017-05-15T10:20:20.275Z,0.29
2017-05-15T10:21:13.345Z,0.28
2017-05-15T10:22:13.676Z,0.34
2017-05-15T10:23:01.844Z,1.04
2017-05-15T10:23:56.843Z,1.03
2017-05-15T10:24:50.463Z,1.02
2017-05-15T10:25:44.045Z,1.01
2017-05-15T10:26:33.027Z,1.03
2017-05-15T10:27:26.941Z,1.04
2017-05-15T10:28:27.009Z,1.04
2017-05-15T10:29:21.804Z,1.03
2017-05-15T10:30:15.148Z,1.03
2017-05-15T10:30:57.792Z,1.01
2017-05-15T10:31:51.891Z,1.00
2017-05-15T10:32:45.836Z,1.00
2017-05-15T10:33:33.827Z,1.00
2017-05-15T10:34:27.805Z,0.99
2017-05-15T10:35:16.819Z,0.99
2017-05-15T10:36:05.449Z,1.00
2017-05-15T10:36:58.986Z,1.00
2017-05-15T10:37:58.402Z,0.99
2017-05-15T10:38:52.919Z,1.03
2017-05-15T10:39:40.918Z,1.03
2017-05-15T10:40:35.890Z,1.02
2017-05-15T10:41:30.440Z,1.01
2017-05-15T10:42:25.047Z,0.98
2017-05-15T10:43:13.512Z,0.97
2017-05-15T10:44:02.031Z,0.95
2017-05-15T10:44:56.546Z,0.96
2017-05-15T10:45:50.132Z,0.96
2017-05-15T10:46:44.937Z,0.97
2017-05-15T10:47:44.565Z,0.98
2017-05-15T10:48:45.097Z,0.23
2017-05-15T10:49:33.829Z,0.25
2017-05-15T10:50:27.589Z,0.83
2017-05-15T10:51:22.727Z,1.00
2017-05-15T10:52:11.282Z,1.00
2017-05-15T10:52:59.379Z,1.01
2017-05-15T10:53:53.386Z,1.01
2017-05-15T10:54:42.544Z,1.00
2017-05-15T10:55:30.885Z,1.00
2017-05-15T10:56:24.433Z,0.99
2017-05-15T10:57:18.282Z,0.99
2017-05-15T10:58:13.123Z,0.97
2017-05-15T10:59:06.982Z,0.95
2017-05-15T10:59:54.803Z,0.93
2017-05-15T11:00:42.875Z,0.95
2017-05-15T11:01:37.880Z,0.96
2017-05-15T11:02:25.484Z,0.98
2017-05-15T11:03:14.443Z,0.98
2017-05-15T11:04:03.036Z,0.83
2017-05-15T11:04:51.536Z,0.32
2017-05-15T11:05:40.628Z,0.28
2017-05-15T11:06:33.641Z,0.89
2017-05-15T11:07:21.608Z,0.97
2017-05-15T11:08:15.497Z,0.98
2017-05-15T11:09:10.536Z,1.00
2017-05-15T11:10:04.079Z,0.99
2017-05-15T11:11:04.132Z,0.98
2017-05-15T11:11:58.058Z,0.99
2017-05-15T11:12:46.057Z,0.98
2017-05-15T11:13:40.073Z,0.98
2017-05-15T11:14:28.150Z,0.98
2017-05-15T11:15:22.964Z,0.97
2017-05-15T11:16:16.563Z,0.95
2017-05-15T11:17:05.495Z,0.96
2017-05-15T11:17:54.080Z,0.97
2017-05-15T11:18:48.621Z,0.97
2017-05-15T11:19:42.137Z,0.99
2017-05-15T11:20:31.137Z,0.98
2017-05-15T11:21:19.829Z,0.68
2017-05-15T11:22:19.288Z,0.89
2017-05-15T11:23:14.215Z,0.75
2017-05-15T11:24:02.742Z,0.91